createdAt,value
2022-10-06T00:01:16.269Z,68.92
2022-10-06T00:03:44.769Z,69.33
2022-10-06T00:06:18.030Z,69.28
2022-10-06T00:08:47.288Z,70.34
2022-10-06T00:11:17.326Z,69.48
2022-10-06T00:13:44.911Z,69.74
2022-10-06T00:16:25.134Z,69.80
2022-10-06T00:18:52.430Z,70.42
2022-10-06T00:21:19.789Z,70.59
2022-10-06T00:23:47.121Z,69.84
2022-10-06T00:26:16.837Z,69.81
2022-10-06T00:28:51.341Z,69.74
2022-10-06T00:31:19.666Z,71.29
2022-10-06T00:33:49.727Z,70.98
2022-10-06T00:36:17.253Z,70.75
2022-10-06T00:38:44.613Z,70.90
2022-10-06T00:41:16.320Z,71.23
2022-10-06T00:43:52.151Z,71.28
2022-10-06T00:46:51.463Z,71.31
2022-10-06T00:49:36.786Z,70.41
2022-10-06T00:52:14.634Z,71.15
2022-10-06T00:54:42.546Z,70.71
2022-10-06T00:57:10.347Z,70.49
2022-10-06T00:59:39.633Z,70.88
2022-10-06T01:02:43.699Z,71.17
2022-10-06T01:05:27.130Z,71.20
2022-10-06T01:07:54.516Z,70.82
2022-10-06T01:10:22.122Z,70.84
2022-10-06T01:12:49.576Z,71.24
2022-10-06T01:15:17.212Z,71.51
2022-10-06T01:18:14.768Z,71.42
2022-10-06T01:21:34.432Z,71.10
2022-10-06T01:24:05.745Z,71.05
2022-10-06T01:26:36.188Z,69.97
2022-10-06T01:29:03.701Z,70.52
2022-10-06T01:31:31.283Z,70.74
2022-10-06T01:33:58.710Z,70.26
2022-10-06T01:36:25.981Z,69.96
2022-10-06T01:38:53.269Z,70.44
2022-10-06T01:41:21.747Z,70.68
2022-10-06T01:43:49.098Z,70.07
2022-10-06T01:46:16.473Z,70.48
2022-10-06T01:48:43.814Z,70.12
2022-10-06T01:51:19.292Z,70.01
2022-10-06T01:53:46.568Z,70.04
2022-10-06T01:56:13.910Z,69.29
2022-10-06T01:58:41.195Z,69.28
2022-10-06T02:01:10.422Z,69.16
2022-10-06T02:03:40.546Z,68.86
2022-10-06T02:06:08.832Z,68.13
2022-10-06T02:08:36.568Z,68.20
2022-10-06T02:11:10.826Z,68.96
2022-10-06T02:13:38.957Z,68.54
2022-10-06T02:16:08.950Z,68.48
2022-10-06T02:18:36.824Z,68.23
2022-10-06T02:21:05.545Z,68.46
2022-10-06T02:23:33.907Z,68.36
2022-10-06T02:26:07.417Z,67.87
2022-10-06T02:28:35.410Z,68.05
2022-10-06T02:31:09.493Z,68.59
2022-10-06T02:33:38.508Z,68.87
2022-10-06T02:36:10.097Z,68.30
2022-10-06T02:38:37.509Z,68.81
2022-10-06T02:41:05.361Z,68.80
2022-10-06T02:43:33.894Z,69.65
2022-10-06T02:46:12.903Z,68.75
2022-10-06T02:48:41.306Z,68.82
2022-10-06T02:51:19.357Z,69.16
2022-10-06T02:53:49.371Z,69.24
2022-10-06T02:56:25.046Z,69.23
2022-10-06T02:58:53.575Z,69.29
2022-10-06T03:01:28.611Z,69.20
2022-10-06T03:03:57.449Z,68.97
2022-10-06T03:06:30.375Z,68.88
2022-10-06T03:09:10.091Z,69.13
2022-10-06T03:11:42.624Z,69.58
2022-10-06T03:14:09.966Z,69.20
2022-10-06T03:16:43.498Z,69.84
2022-10-06T03:19:11.494Z,69.66
2022-10-06T03:21:43.175Z,69.29
2022-10-06T03:24:11.268Z,69.83
2022-10-06T03:26:45.046Z,69.65
2022-10-06T03:29:13.869Z,70.10
2022-10-06T03:31:43.433Z,70.17
2022-10-06T03:34:11.112Z,69.86
2022-10-06T03:36:39.471Z,70.55
2022-10-06T03:39:08.746Z,70.22
2022-10-06T03:41:38.179Z,70.29
2022-10-06T03:44:06.058Z,70.38
2022-10-06T03:46:36.606Z,70.55
2022-10-06T03:49:04.308Z,70.18
2022-10-06T03:51:41.309Z,70.18
2022-10-06T03:54:10.837Z,70.19
2022-10-06T03:56:41.886Z,69.74
2022-10-06T03:59:17.249Z,69.11
2022-10-06T04:01:49.398Z,69.29
2022-10-06T04:04:17.061Z,69.61
2022-10-06T04:06:44.881Z,69.74
2022-10-06T04:09:15.860Z,69.67
2022-10-06T04:11:45.335Z,69.64
2022-10-06T04:14:16.345Z,69.85
2022-10-06T04:16:50.697Z,70.01
2022-10-06T04:19:18.731Z,69.71
2022-10-06T04:21:47.924Z,70.80
2022-10-06T04:24:18.370Z,70.67
2022-10-06T04:26:48.976Z,70.73
2022-10-06T04:29:17.102Z,70.58
2022-10-06T04:31:45.528Z,70.58
2022-10-06T04:34:13.388Z,70.60
2022-10-06T04:36:43.314Z,71.51
2022-10-06T04:39:13.664Z,70.82
2022-10-06T04:41:42.461Z,71.09
2022-10-06T04:44:10.261Z,71.52
2022-10-06T04:46:43.272Z,71.26
2022-10-06T04:49:17.881Z,70.84
2022-10-06T04:51:49.405Z,70.99
2022-10-06T04:54:18.912Z,70.74
2022-10-06T04:56:46.545Z,70.81
2022-10-06T04:59:13.819Z,70.87
2022-10-06T05:01:41.081Z,71.22
2022-10-06T05:04:08.422Z,70.80
2022-10-06T05:06:42.571Z,70.64
2022-10-06T05:09:15.964Z,70.54
2022-10-06T05:11:44.976Z,70.22
2022-10-06T05:14:12.260Z,70.60
2022-10-06T05:16:39.636Z,70.17
2022-10-06T05:19:08.207Z,70.29
2022-10-06T05:21:36.124Z,70.60
2022-10-06T05:24:03.933Z,70.19
2022-10-06T05:26:35.030Z,70.00
2022-10-06T05:29:02.357Z,70.07
2022-10-06T05:31:41.074Z,69.62
2022-10-06T05:34:10.168Z,69.42
2022-10-06T05:36:37.435Z,68.85
2022-10-06T05:39:05.190Z,69.56
2022-10-06T05:41:34.976Z,69.55
2022-10-06T05:44:02.309Z,69.20
2022-10-06T05:46:35.280Z,69.43
2022-10-06T05:49:11.422Z,69.21
2022-10-06T05:51:41.976Z,69.41
2022-10-06T05:54:09.173Z,69.28
2022-10-06T05:56:39.013Z,69.55
2022-10-06T05:59:07.629Z,69.26
2022-10-06T06:01:41.919Z,69.45
2022-10-06T06:04:13.228Z,69.69
2022-10-06T06:06:47.156Z,69.60
2022-10-06T06:09:21.517Z,69.29
2022-10-06T06:11:52.992Z,69.23
2022-10-06T06:14:42.017Z,69.35
2022-10-06T06:17:09.347Z,69.27
2022-10-06T06:19:36.890Z,68.96
2022-10-06T06:22:08.149Z,68.67
2022-10-06T06:24:35.424Z,69.21
2022-10-06T06:27:02.702Z,69.15
2022-10-06T06:29:29.977Z,69.00
2022-10-06T06:31:57.237Z,68.61
2022-10-06T06:34:25.571Z,68.85
2022-10-06T06:36:55.939Z,68.73
2022-10-06T06:39:23.204Z,68.93
2022-10-06T06:41:50.505Z,68.25
2022-10-06T06:44:18.065Z,68.21
2022-10-06T06:46:49.304Z,68.64
2022-10-06T06:49:19.418Z,68.13
2022-10-06T06:51:49.871Z,68.43
2022-10-06T06:54:18.223Z,67.84
2022-10-06T06:56:46.607Z,68.09
2022-10-06T06:59:14.400Z,68.10
2022-10-06T07:01:46.259Z,67.81
2022-10-06T07:04:17.108Z,68.09
2022-10-06T07:06:58.653Z,67.36
2022-10-06T07:09:27.076Z,67.11
2022-10-06T07:11:57.125Z,67.12
2022-10-06T07:14:24.651Z,67.44
2022-10-06T07:17:10.879Z,67.03
2022-10-06T07:19:38.128Z,67.07
2022-10-06T07:22:36.731Z,67.43
2022-10-06T07:25:26.484Z,67.57
2022-10-06T07:27:55.137Z,67.10
2022-10-06T07:30:27.837Z,67.41
2022-10-06T07:32:55.525Z,67.06
2022-10-06T07:35:25.687Z,67.19
2022-10-06T07:37:53.365Z,67.33
2022-10-06T07:40:21.079Z,67.35
2022-10-06T07:42:48.637Z,67.52
2022-10-06T07:45:39.071Z,67.28
2022-10-06T07:48:19.475Z,67.33
2022-10-06T07:50:51.172Z,67.68
2022-10-06T07:53:19.451Z,67.73
2022-10-06T07:55:48.062Z,67.78
2022-10-06T07:58:22.419Z,68.50
2022-10-06T08:00:52.691Z,68.38
2022-10-06T08:03:21.195Z,68.62
2022-10-06T08:05:59.124Z,68.97
2022-10-06T08:08:26.978Z,68.67
2022-10-06T08:11:00.378Z,69.08
2022-10-06T08:13:29.142Z,69.03
2022-10-06T08:16:02.966Z,69.57
2022-10-06T08:18:47.101Z,69.17
2022-10-06T08:21:29.893Z,69.16
2022-10-06T08:23:58.992Z,69.04
2022-10-06T08:26:28.083Z,69.38
2022-10-06T08:29:20.227Z,69.18
2022-10-06T08:32:24.412Z,68.85
2022-10-06T08:35:04.412Z,68.61
2022-10-06T08:40:48.172Z,68.20
2022-10-06T08:43:25.344Z,67.65
2022-10-06T08:46:08.036Z,67.57
2022-10-06T08:48:54.556Z,67.73
2022-10-06T08:52:20.207Z,67.87
2022-10-06T08:55:40.123Z,66.98
2022-10-06T08:58:55.665Z,66.79
2022-10-06T09:01:33.247Z,66.83
2022-10-06T09:04:03.594Z,67.17
2022-10-06T09:07:16.679Z,66.78
2022-10-06T09:10:49.431Z,66.91
2022-10-06T09:13:56.569Z,67.17
2022-10-06T09:16:36.131Z,67.04
2022-10-06T09:19:43.351Z,67.25
2022-10-06T09:22:23.356Z,67.08
2022-10-06T09:25:16.312Z,66.85
2022-10-06T09:27:50.604Z,66.53
2022-10-06T09:30:19.172Z,66.98
2022-10-06T09:33:02.749Z,66.94
2022-10-06T09:35:32.589Z,66.69
2022-10-06T09:38:08.538Z,67.28
2022-10-06T09:40:52.154Z,67.56
2022-10-06T09:43:28.546Z,67.44
2022-10-06T09:46:21.305Z,67.17
2022-10-06T09:48:48.609Z,67.04
2022-10-06T09:51:18.326Z,67.41
2022-10-06T09:54:11.090Z,66.59
2022-10-06T09:56:47.318Z,66.98
2022-10-06T09:59:39.953Z,66.38
2022-10-06T10:02:37.353Z,66.39
2022-10-06T10:05:21.816Z,66.92
2022-10-06T10:08:14.292Z,67.09
2022-10-06T10:10:41.881Z,66.53
2022-10-06T10:13:26.871Z,65.96
2022-10-06T10:16:02.647Z,66.66
2022-10-06T10:18:31.877Z,66.36
2022-10-06T10:21:10.426Z,66.56
2022-10-06T10:23:57.598Z,66.96
2022-10-06T10:27:16.376Z,66.43
2022-10-06T10:30:14.791Z,66.98
2022-10-06T10:33:04.955Z,67.76
2022-10-06T10:35:48.434Z,67.67
2022-10-06T10:38:24.747Z,68.26
2022-10-06T10:41:09.644Z,68.26
2022-10-06T10:44:29.428Z,68.28
2022-10-06T10:47:32.564Z,68.38
2022-10-06T10:50:30.903Z,68.30
2022-10-06T10:53:37.613Z,67.91
2022-10-06T10:56:13.735Z,67.67
2022-10-06T10:58:45.473Z,66.93
2022-10-06T11:01:46.666Z,66.88
2022-10-06T11:04:14.816Z,66.80
2022-10-06T11:07:21.712Z,67.16
2022-10-06T11:10:13.556Z,66.24
2022-10-06T11:13:47.053Z,66.02
2022-10-06T11:16:49.921Z,64.85
2022-10-06T11:19:47.631Z,65.16
2022-10-06T11:23:38.028Z,64.80
2022-10-06T11:27:11.128Z,63.44
2022-10-06T11:30:06.913Z,63.46
2022-10-06T11:33:14.196Z,63.57
2022-10-06T11:35:46.264Z,62.50
2022-10-06T11:38:40.536Z,62.41
2022-10-06T11:42:12.036Z,61.22
2022-10-06T11:45:05.473Z,61.53
2022-10-06T11:48:25.395Z,59.81
2022-10-06T11:50:57.504Z,59.67
2022-10-06T11:53:39.613Z,58.80
2022-10-06T11:56:18.869Z,58.54
2022-10-06T11:58:54.692Z,57.91
2022-10-06T12:01:33.679Z,57.35
2022-10-06T12:04:09.969Z,57.06
2022-10-06T12:06:45.746Z,56.46
2022-10-06T12:09:25.991Z,56.22
2022-10-06T12:12:15.049Z,55.54
2022-10-06T12:18:44.483Z,50.53
2022-10-06T12:21:51.759Z,49.33
2022-10-06T12:24:43.862Z,49.19
2022-10-06T12:28:27.399Z,46.48
2022-10-06T12:31:46.334Z,45.34
2022-10-06T12:35:03.428Z,43.57
2022-10-06T12:37:58.361Z,45.00
2022-10-06T12:40:52.061Z,43.82
2022-10-06T12:43:49.840Z,42.97
2022-10-06T12:46:49.681Z,42.67
2022-10-06T12:49:55.081Z,42.68
2022-10-06T12:52:54.520Z,42.35
2022-10-06T12:55:46.765Z,41.90
2022-10-06T12:58:28.968Z,42.09
2022-10-06T13:01:11.603Z,42.28
2022-10-06T13:03:39.648Z,41.32
2022-10-06T13:06:09.461Z,41.32
2022-10-06T13:08:40.264Z,41.36
2022-10-06T13:11:27.065Z,40.60
2022-10-06T13:14:10.744Z,40.49
2022-10-06T13:16:48.117Z,39.66
2022-10-06T13:19:28.247Z,40.90
2022-10-06T13:21:55.697Z,40.53
2022-10-06T13:24:27.210Z,41.62
2022-10-06T13:26:56.157Z,40.92
2022-10-06T13:29:26.423Z,40.63
2022-10-06T13:31:55.831Z,40.20
2022-10-06T13:34:34.831Z,39.28
2022-10-06T13:37:02.785Z,40.39
2022-10-06T13:39:33.313Z,40.83
2022-10-06T13:42:23.281Z,39.93
2022-10-06T13:45:02.788Z,40.05
2022-10-06T13:47:31.528Z,41.00
2022-10-06T13:50:15.918Z,40.67
2022-10-06T13:52:48.618Z,40.84
2022-10-06T13:55:29.344Z,40.21
2022-10-06T13:58:05.183Z,42.14
2022-10-06T14:01:03.482Z,40.97
2022-10-06T14:06:24.945Z,41.99
2022-10-06T14:08:57.617Z,41.16
2022-10-06T14:11:29.745Z,41.94
2022-10-06T14:14:03.373Z,41.77
2022-10-06T14:16:31.168Z,42.55
2022-10-06T14:19:05.947Z,42.49
2022-10-06T14:21:39.756Z,41.78
2022-10-06T14:24:16.784Z,43.77
2022-10-06T14:26:50.933Z,41.84
2022-10-06T14:29:19.231Z,41.81
2022-10-06T14:31:47.926Z,42.46
2022-10-06T14:34:20.652Z,43.34
2022-10-06T14:36:51.847Z,43.41
2022-10-06T14:39:19.795Z,43.03
2022-10-06T14:41:47.543Z,42.76
2022-10-06T14:44:16.049Z,43.07
2022-10-06T14:46:49.735Z,41.73
2022-10-06T14:49:17.572Z,42.78
2022-10-06T14:51:45.603Z,42.58
2022-10-06T14:54:14.440Z,43.37
2022-10-06T14:56:43.050Z,43.64
2022-10-06T14:59:17.604Z,42.19
2022-10-06T15:01:46.783Z,44.19
2022-10-06T15:04:20.393Z,44.41
2022-10-06T15:07:06.719Z,44.18
2022-10-06T15:09:35.590Z,44.13
2022-10-06T15:12:03.640Z,45.10
2022-10-06T15:14:31.092Z,44.91
2022-10-06T15:17:00.274Z,45.29
2022-10-06T15:19:28.173Z,44.46
2022-10-06T15:21:56.158Z,45.08
2022-10-06T15:24:23.462Z,43.96
2022-10-06T15:27:09.512Z,44.21
2022-10-06T15:29:36.790Z,45.99
2022-10-06T15:32:06.444Z,45.72
2022-10-06T15:34:36.810Z,46.05
2022-10-06T15:37:05.346Z,45.35
2022-10-06T15:39:37.572Z,46.03
2022-10-06T15:42:05.515Z,46.88
2022-10-06T15:44:34.717Z,46.71
2022-10-06T15:47:04.417Z,48.28
2022-10-06T15:49:37.754Z,48.43
2022-10-06T15:52:06.464Z,48.24
2022-10-06T15:54:38.167Z,49.51
2022-10-06T15:57:13.863Z,49.53
2022-10-06T15:59:44.213Z,50.13
2022-10-06T16:02:18.083Z,50.21
2022-10-06T16:05:02.380Z,51.27
2022-10-06T16:07:31.539Z,51.07
2022-10-06T16:09:59.221Z,52.00
2022-10-06T16:12:28.488Z,51.97
2022-10-06T16:14:55.808Z,52.10
2022-10-06T16:17:23.152Z,52.02
2022-10-06T16:19:50.457Z,52.49
2022-10-06T16:22:19.807Z,52.30
2022-10-06T16:24:47.079Z,53.84
2022-10-06T16:27:16.301Z,53.65
2022-10-06T16:29:43.597Z,53.17
2022-10-06T16:32:10.877Z,53.53
2022-10-06T16:34:38.154Z,54.40
2022-10-06T16:37:05.476Z,54.33
2022-10-06T16:39:32.873Z,54.07
2022-10-06T16:42:00.145Z,54.66
2022-10-06T16:44:27.405Z,54.39
2022-10-06T16:46:54.877Z,55.79
2022-10-06T16:49:24.550Z,55.39
2022-10-06T16:51:51.938Z,56.32
2022-10-06T16:54:19.288Z,55.42
2022-10-06T16:56:54.332Z,56.48
2022-10-06T16:59:26.472Z,56.35
2022-10-06T17:01:53.855Z,56.74
2022-10-06T17:04:25.221Z,56.57
2022-10-06T17:06:56.958Z,56.88
2022-10-06T17:09:28.896Z,56.98
2022-10-06T17:12:03.950Z,57.07
2022-10-06T17:14:34.543Z,57.22
2022-10-06T17:17:02.080Z,57.71
2022-10-06T17:19:30.607Z,56.39
2022-10-06T17:21:59.688Z,57.17
2022-10-06T17:24:29.553Z,57.10
2022-10-06T17:26:58.188Z,57.94
2022-10-06T17:29:27.201Z,58.87
2022-10-06T17:32:00.390Z,58.29
2022-10-06T17:34:32.405Z,59.22
2022-10-06T17:37:02.326Z,59.12
2022-10-06T17:39:29.917Z,59.11
2022-10-06T17:41:57.401Z,58.58
2022-10-06T17:44:29.121Z,58.59
2022-10-06T17:47:00.466Z,58.78
2022-10-06T17:49:32.693Z,58.99
2022-10-06T17:52:00.490Z,59.76
2022-10-06T17:54:28.587Z,60.51
2022-10-06T17:56:58.172Z,59.70
2022-10-06T17:59:31.946Z,59.92
2022-10-06T18:02:02.955Z,60.55
2022-10-06T18:04:31.442Z,61.73
2022-10-06T18:06:58.944Z,62.03
2022-10-06T18:09:26.344Z,62.09
2022-10-06T18:11:58.539Z,62.08
2022-10-06T18:14:33.226Z,63.17
2022-10-06T18:17:03.787Z,62.91
2022-10-06T18:19:36.435Z,63.36
2022-10-06T18:22:10.488Z,63.43
2022-10-06T18:24:38.999Z,63.24
2022-10-06T18:27:08.167Z,63.47
2022-10-06T18:29:38.934Z,62.67
2022-10-06T18:36:12.409Z,63.57
2022-10-06T18:37:46.254Z,63.88
2022-10-06T18:40:14.899Z,63.58
2022-10-06T18:42:42.225Z,63.45
2022-10-06T18:45:36.785Z,63.98
2022-10-06T18:48:26.409Z,63.15
2022-10-06T18:51:03.368Z,64.30
2022-10-06T18:53:36.316Z,63.63
2022-10-06T18:56:05.088Z,63.27
2022-10-06T18:58:39.016Z,63.18
2022-10-06T19:01:07.981Z,64.03
2022-10-06T19:03:35.368Z,63.82
2022-10-06T19:06:02.834Z,64.78
2022-10-06T19:08:30.205Z,64.18
2022-10-06T19:11:25.476Z,64.36
2022-10-06T19:13:53.834Z,64.89
2022-10-06T19:16:21.454Z,65.25
2022-10-06T19:18:48.955Z,64.43
2022-10-06T19:21:16.288Z,64.82
2022-10-06T19:23:43.654Z,65.01
2022-10-06T19:26:11.790Z,65.15
2022-10-06T19:28:39.717Z,65.43
2022-10-06T19:31:19.953Z,65.03
2022-10-06T19:33:48.483Z,65.62
2022-10-06T19:36:17.062Z,66.82
2022-10-06T19:38:45.507Z,65.47
2022-10-06T19:41:32.660Z,65.10
2022-10-06T19:44:02.378Z,66.04
2022-10-06T19:46:29.856Z,65.62
2022-10-06T19:48:58.777Z,65.89
2022-10-06T19:51:28.180Z,65.55
2022-10-06T19:53:55.597Z,65.37
2022-10-06T19:56:25.116Z,65.09
2022-10-06T19:58:52.813Z,65.29
2022-10-06T20:01:20.455Z,65.01
2022-10-06T20:03:47.935Z,65.82
2022-10-06T20:06:16.731Z,65.75
2022-10-06T20:08:44.265Z,65.04
2022-10-06T20:11:17.723Z,65.53
2022-10-06T20:13:46.083Z,64.66
2022-10-06T20:16:20.657Z,65.07
2022-10-06T20:18:50.601Z,65.66
2022-10-06T20:21:31.095Z,65.71
2022-10-06T20:24:02.107Z,66.11
2022-10-06T20:26:38.486Z,65.94
2022-10-06T20:29:11.629Z,65.72
2022-10-06T20:31:48.664Z,65.98
2022-10-06T20:34:22.528Z,66.20
2022-10-06T20:36:54.775Z,66.30
2022-10-06T20:39:43.741Z,66.99
2022-10-06T20:42:15.217Z,66.21
2022-10-06T20:44:44.096Z,66.36
2022-10-06T20:47:13.267Z,65.98
2022-10-06T20:49:42.469Z,65.39
2022-10-06T20:52:10.534Z,65.37
2022-10-06T20:54:38.664Z,66.27
2022-10-06T20:57:07.183Z,66.20
2022-10-06T20:59:37.529Z,66.23
2022-10-06T21:02:06.768Z,65.38
2022-10-06T21:04:34.803Z,65.11
2022-10-06T21:07:05.740Z,66.03
2022-10-06T21:09:33.146Z,65.64
2022-10-06T21:12:00.630Z,65.33
2022-10-06T21:14:27.876Z,64.92
2022-10-06T21:16:55.135Z,65.56
2022-10-06T21:19:22.570Z,65.12
2022-10-06T21:21:51.805Z,64.77
2022-10-06T21:24:22.668Z,65.68
2022-10-06T21:26:52.212Z,65.35
2022-10-06T21:29:20.419Z,65.52
2022-10-06T21:31:48.606Z,65.21
2022-10-06T21:34:15.947Z,65.18
2022-10-06T21:36:44.201Z,66.10
2022-10-06T21:39:13.053Z,65.66
2022-10-06T21:41:41.183Z,65.59
2022-10-06T21:44:16.291Z,65.52
2022-10-06T21:46:56.005Z,65.16
2022-10-06T21:49:25.621Z,66.17
2022-10-06T21:51:56.124Z,65.58
2022-10-06T21:54:23.810Z,64.98
2022-10-06T21:56:51.617Z,66.32
2022-10-06T21:59:19.217Z,66.04
2022-10-06T22:01:50.158Z,66.00
2022-10-06T22:04:18.539Z,66.21
2022-10-06T22:06:49.908Z,66.18
2022-10-06T22:09:19.882Z,65.45
2022-10-06T22:11:47.840Z,65.33
2022-10-06T22:14:18.871Z,64.98
2022-10-06T22:16:47.361Z,65.12
2022-10-06T22:19:17.015Z,66.00
2022-10-06T22:21:48.623Z,65.95
2022-10-06T22:24:21.103Z,67.35
2022-10-06T22:26:50.671Z,66.56
2022-10-06T22:29:21.149Z,66.69
2022-10-06T22:31:49.304Z,66.39
2022-10-06T22:34:22.836Z,66.42
2022-10-06T22:36:50.603Z,67.07
2022-10-06T22:39:20.093Z,66.65
2022-10-06T22:41:48.627Z,66.32
2022-10-06T22:44:17.248Z,66.38
2022-10-06T22:46:45.334Z,66.65
2022-10-06T22:49:14.479Z,66.71
2022-10-06T22:51:42.345Z,67.10
2022-10-06T22:54:20.232Z,66.86
2022-10-06T22:56:48.172Z,66.59
2022-10-06T22:59:16.567Z,66.83
2022-10-06T23:01:47.332Z,66.45
2022-10-06T23:04:17.811Z,67.49
2022-10-06T23:06:47.691Z,68.10
2022-10-06T23:09:16.439Z,67.69
2022-10-06T23:11:43.859Z,66.92
2022-10-06T23:14:12.618Z,67.13
2022-10-06T23:16:40.333Z,67.23
2022-10-06T23:19:07.739Z,67.18
2022-10-06T23:21:38.226Z,67.84
2022-10-06T23:24:08.728Z,67.08
2022-10-06T23:26:37.908Z,67.33
2022-10-06T23:29:08.060Z,66.07
2022-10-06T23:31:36.263Z,66.81
2022-10-06T23:34:07.174Z,66.39
2022-10-06T23:36:37.917Z,66.01
2022-10-06T23:39:07.304Z,66.26
2022-10-06T23:41:35.985Z,65.60
2022-10-06T23:44:03.304Z,67.07
2022-10-06T23:46:32.034Z,66.26
2022-10-06T23:49:00.593Z,66.08
2022-10-06T23:51:30.074Z,65.83
2022-10-06T23:53:58.946Z,66.13
2022-10-06T23:56:30.144Z,66.38
2022-10-06T23:58:59.034Z,66.27
